Аэропорт: Национальный аэропорт Минск. Минск

ICAO: UMMS

METAR:
2021-01-20 04:00:00
UMMS 200400Z 13002MPS 6000 BKN032 M16/M17 Q1016 R31R/490340 R31L/////// NOSIG
METAR:
2021-01-19 23:02:00
TAF UMMS 192302Z 2000/2024 VRB02MPS 5000 BR BKN005 TEMPO 2000/2006 0600 -SN FZFG BKN003 BECMG 2006/2007 18005G10MPS 6000 NSW TEMPO 2007/2024 16008G13MPS 1200 -SN BLSN BKN003